Time;durP1;ratioP1;P1;durP2;ratioP2;P2;SDS_P1;SDS_P2;PMS_P1;PMS_P2;Temp;Humidity;BMP_temperature;BMP_pressure;BME280_temperature;BME280_humidity;BME280_pressure;Samples;Min_cycle;Max_cycle;Signal;HPM_P1;HPM_P2
2022/11/18 00:00:55;;;;;;;4.78;3.20;;;;;;;;;;5073647;28;20372;-67
2022/11/18 00:03:20;;;;;;;3.60;3.20;;;;;;;;;;5073534;28;20063;-68
2022/11/18 00:05:56;;;;;;;3.50;3.03;;;;;;;;;;5073398;28;20060;-68
2022/11/18 00:08:23;;;;;;;3.13;2.83;;;;;;;;;;5073081;28;20043;-67
2022/11/18 00:10:49;;;;;;;3.70;3.25;;;;;;;;;;5073212;28;20102;-68
2022/11/18 00:16:00;;;;;;;3.63;3.13;;;;;;;;;;5073629;28;20036;-68
2022/11/18 00:18:26;;;;;;;3.22;2.90;;;;;;;;;;5073005;28;20024;-68
2022/11/18 00:20:52;;;;;;;3.65;2.95;;;;;;;;;;5055057;28;20392;-68
2022/11/18 00:23:17;;;;;;;3.20;2.90;;;;;;;;;;5073291;28;20111;-67
2022/11/18 00:25:43;;;;;;;3.67;3.10;;;;;;;;;;5073003;28;20017;-68
2022/11/18 00:28:08;;;;;;;3.30;3.00;;;;;;;;;;5054862;28;20032;-68
2022/11/18 00:30:34;;;;;;;4.53;3.33;;;;;;;;;;5073238;28;20066;-68
2022/11/18 00:32:59;;;;;;;4.35;3.03;;;;;;;;;;5072809;28;20111;-68
2022/11/18 00:35:25;;;;;;;3.30;3.00;;;;;;;;;;5072848;28;20026;-68
2022/11/18 00:37:50;;;;;;;3.10;2.80;;;;;;;;;;5072727;28;20158;-67
2022/11/18 00:40:16;;;;;;;3.70;3.33;;;;;;;;;;5072603;28;20025;-68
2022/11/18 00:42:51;;;;;;;3.45;3.10;;;;;;;;;;5072700;28;20082;-67
2022/11/18 00:45:20;;;;;;;3.30;3.00;;;;;;;;;;5073006;28;20020;-67
2022/11/18 00:47:46;;;;;;;4.38;3.38;;;;;;;;;;5072772;28;20028;-67
2022/11/18 00:50:12;;;;;;;3.13;2.83;;;;;;;;;;5072575;28;20380;-67
2022/11/18 00:52:37;;;;;;;3.20;2.90;;;;;;;;;;5072644;28;20111;-66
2022/11/18 00:55:03;;;;;;;3.30;3.00;;;;;;;;;;5072483;28;20104;-67
2022/11/18 00:57:29;;;;;;;3.83;3.20;;;;;;;;;;5072043;28;20475;-68
2022/11/18 00:59:54;;;;;;;3.10;2.80;;;;;;;;;;5072438;28;20100;-61
2022/11/18 01:02:20;;;;;;;3.28;2.78;;;;;;;;;;5072133;28;20067;-63
2022/11/18 01:04:46;;;;;;;3.47;2.72;;;;;;;;;;5072812;28;20052;-64
2022/11/18 01:07:11;;;;;;;3.50;3.13;;;;;;;;;;5072431;28;20029;-65
2022/11/18 01:09:37;;;;;;;3.20;2.90;;;;;;;;;;5071918;28;20044;-63
2022/11/18 01:14:47;;;;;;;3.13;2.83;;;;;;;;;;5072750;28;20027;-63
2022/11/18 01:17:12;;;;;;;3.40;3.10;;;;;;;;;;5072304;28;20427;-61
2022/11/18 01:19:38;;;;;;;3.30;3.00;;;;;;;;;;5072428;28;20501;-62
2022/11/18 01:22:03;;;;;;;3.10;2.80;;;;;;;;;;5072391;28;20040;-66
2022/11/18 01:24:30;;;;;;;3.13;2.75;;;;;;;;;;5072218;28;20459;-67
2022/11/18 01:26:56;;;;;;;3.65;3.33;;;;;;;;;;5072288;28;20029;-67
2022/11/18 01:29:21;;;;;;;3.67;3.08;;;;;;;;;;5072075;28;20443;-68
2022/11/18 01:31:47;;;;;;;3.08;2.78;;;;;;;;;;5072189;28;20555;-68
2022/11/18 01:34:13;;;;;;;3.30;3.00;;;;;;;;;;5072290;28;20020;-67
2022/11/18 01:36:39;;;;;;;3.10;2.80;;;;;;;;;;5072466;28;20406;-67
2022/11/18 01:39:04;;;;;;;3.75;3.20;;;;;;;;;;5071972;28;20036;-66
2022/11/18 01:41:30;;;;;;;3.28;2.97;;;;;;;;;;5071997;28;20037;-67
2022/11/18 01:43:57;;;;;;;3.75;3.20;;;;;;;;;;5072282;28;20021;-65
2022/11/18 01:46:25;;;;;;;3.47;3.17;;;;;;;;;;5072194;28;20025;-68
2022/11/18 01:49:10;;;;;;;3.30;3.00;;;;;;;;;;5071965;28;20463;-67
2022/11/18 01:51:45;;;;;;;4.80;3.33;;;;;;;;;;5072301;28;20047;-67
2022/11/18 01:54:22;;;;;;;3.70;3.22;;;;;;;;;;5071902;28;20111;-64
2022/11/18 01:56:53;;;;;;;2.88;2.67;;;;;;;;;;5071994;28;20028;-61
2022/11/18 01:59:26;;;;;;;3.15;2.85;;;;;;;;;;5071789;28;20024;-63
2022/11/18 02:01:54;;;;;;;3.20;2.90;;;;;;;;;;5072070;28;20035;-61
2022/11/18 02:04:20;;;;;;;3.45;3.15;;;;;;;;;;5071833;28;20087;-61
2022/11/18 02:06:46;;;;;;;3.53;3.10;;;;;;;;;;5071873;28;20025;-62
2022/11/18 02:09:14;;;;;;;4.05;3.00;;;;;;;;;;5071527;28;20037;-64
2022/11/18 02:11:53;;;;;;;3.55;3.17;;;;;;;;;;5075531;28;20059;-60
2022/11/18 02:14:32;;;;;;;3.38;2.70;;;;;;;;;;5075463;28;20028;-61
2022/11/18 02:17:22;;;;;;;3.23;2.83;;;;;;;;;;5075874;28;20070;-68
2022/11/18 02:20:25;;;;;;;3.20;2.90;;;;;;;;;;5075362;28;20094;-65
2022/11/18 02:23:11;;;;;;;3.97;3.00;;;;;;;;;;5075316;28;20086;-67
2022/11/18 02:26:03;;;;;;;3.25;2.95;;;;;;;;;;5075425;28;20091;-68
2022/11/18 02:28:34;;;;;;;3.53;2.85;;;;;;;;;;5046102;28;20040;-67
2022/11/18 02:31:16;;;;;;;3.17;2.88;;;;;;;;;;5057679;28;20024;-67
2022/11/18 02:33:58;;;;;;;3.28;2.97;;;;;;;;;;5075250;28;20016;-66
2022/11/18 02:36:36;;;;;;;4.10;2.95;;;;;;;;;;5075073;28;20039;-66
2022/11/18 02:39:07;;;;;;;3.40;2.95;;;;;;;;;;5074976;28;20033;-67
2022/11/18 02:41:35;;;;;;;3.03;2.78;;;;;;;;;;5074940;28;20055;-67
2022/11/18 02:44:14;;;;;;;3.30;3.00;;;;;;;;;;5075038;28;20028;-68
2022/11/18 02:46:44;;;;;;;3.17;2.88;;;;;;;;;;5074968;28;20021;-67
2022/11/18 02:49:16;;;;;;;3.70;3.03;;;;;;;;;;5074742;28;20188;-68
2022/11/18 02:51:44;;;;;;;3.58;2.85;;;;;;;;;;5074909;28;20024;-68
2022/11/18 02:54:12;;;;;;;3.42;3.13;;;;;;;;;;5074739;28;20029;-68
2022/11/18 02:56:38;;;;;;;3.40;3.10;;;;;;;;;;5056782;28;20491;-67
2022/11/18 02:59:04;;;;;;;3.53;2.92;;;;;;;;;;5056712;28;20036;-67
2022/11/18 03:01:32;;;;;;;3.05;2.75;;;;;;;;;;5074672;28;20035;-67
2022/11/18 03:03:58;;;;;;;3.15;2.85;;;;;;;;;;5074648;28;20025;-68
2022/11/18 03:06:27;;;;;;;3.45;3.15;;;;;;;;;;5074517;28;20044;-67
2022/11/18 03:09:25;;;;;;;3.20;2.90;;;;;;;;;;5074265;28;20041;-68
2022/11/18 03:11:58;;;;;;;3.63;3.30;;;;;;;;;;5060768;28;20047;-68
2022/11/18 03:14:48;;;;;;;3.22;2.92;;;;;;;;;;5074445;28;20033;-67
2022/11/18 03:17:40;;;;;;;3.55;3.20;;;;;;;;;;5074756;28;20406;-62
2022/11/18 03:20:08;;;;;;;3.28;2.97;;;;;;;;;;5037579;28;20033;-61
2022/11/18 03:22:40;;;;;;;3.65;3.03;;;;;;;;;;5074167;28;20081;-67
2022/11/18 03:25:20;;;;;;;3.20;2.90;;;;;;;;;;5074262;28;20025;-67
2022/11/18 03:27:56;;;;;;;3.45;2.92;;;;;;;;;;5074224;28;20103;-67
2022/11/18 03:30:23;;;;;;;2.80;2.60;;;;;;;;;;5074265;28;20360;-68
2022/11/18 03:33:04;;;;;;;3.30;3.00;;;;;;;;;;5074022;28;20061;-67
2022/11/18 03:35:33;;;;;;;3.15;2.85;;;;;;;;;;5074098;28;20033;-67
2022/11/18 03:38:12;;;;;;;3.30;3.00;;;;;;;;;;5074029;28;20099;-66
2022/11/18 03:40:40;;;;;;;3.55;3.25;;;;;;;;;;5074077;28;20078;-68
2022/11/18 03:43:13;;;;;;;3.28;2.97;;;;;;;;;;5073915;28;20090;-67
2022/11/18 03:45:46;;;;;;;5.03;3.20;;;;;;;;;;5074010;28;20434;-68
2022/11/18 03:48:18;;;;;;;3.90;2.80;;;;;;;;;;5073704;28;20472;-68
2022/11/18 03:51:07;;;;;;;3.10;2.90;;;;;;;;;;5073609;28;20081;-67
2022/11/18 03:53:36;;;;;;;3.03;2.72;;;;;;;;;;5073739;28;20016;-67
2022/11/18 03:56:08;;;;;;;3.90;2.90;;;;;;;;;;5073817;28;20020;-67
2022/11/18 03:58:56;;;;;;;3.00;2.80;;;;;;;;;;5073749;28;20029;-68
2022/11/18 04:01:38;;;;;;;3.47;2.70;;;;;;;;;;5073416;28;20031;-68
2022/11/18 04:04:04;;;;;;;2.85;2.60;;;;;;;;;;5073493;28;20445;-68
2022/11/18 04:06:35;;;;;;;3.72;2.90;;;;;;;;;;5073377;28;20044;-68
2022/11/18 04:09:07;;;;;;;3.22;2.92;;;;;;;;;;5072974;28;20519;-68
2022/11/18 04:14:25;;;;;;;3.47;2.95;;;;;;;;;;5073470;28;20106;-68
2022/11/18 04:16:52;;;;;;;3.08;2.67;;;;;;;;;;5073509;28;20020;-68
2022/11/18 04:19:18;;;;;;;3.75;2.97;;;;;;;;;;5073291;28;20020;-68
2022/11/18 04:21:45;;;;;;;3.92;3.17;;;;;;;;;;5073042;28;20103;-67
2022/11/18 04:24:10;;;;;;;3.55;3.03;;;;;;;;;;5072988;28;20024;-67
2022/11/18 04:26:36;;;;;;;3.17;2.88;;;;;;;;;;5073474;28;20043;-67
2022/11/18 04:29:02;;;;;;;3.30;3.00;;;;;;;;;;5055019;28;20413;-67
2022/11/18 04:31:27;;;;;;;3.83;2.97;;;;;;;;;;5073011;28;20031;-62
2022/11/18 04:33:53;;;;;;;3.00;2.70;;;;;;;;;;5072174;28;20036;-65
2022/11/18 04:36:18;;;;;;;3.08;2.78;;;;;;;;;;5072702;28;20036;-61
2022/11/18 04:38:44;;;;;;;3.40;3.10;;;;;;;;;;5073002;28;20036;-62
2022/11/18 04:41:10;;;;;;;3.25;2.83;;;;;;;;;;5072838;28;20029;-67
2022/11/18 04:43:35;;;;;;;2.90;2.70;;;;;;;;;;5072661;28;20078;-67
2022/11/18 04:46:01;;;;;;;3.17;2.65;;;;;;;;;;5072781;28;20052;-67
2022/11/18 04:48:26;;;;;;;3.45;2.90;;;;;;;;;;5072887;28;20460;-67
2022/11/18 04:50:52;;;;;;;3.10;2.80;;;;;;;;;;5072340;28;20032;-68
2022/11/18 04:53:17;;;;;;;3.20;2.70;;;;;;;;;;5072589;28;20039;-68
2022/11/18 04:55:43;;;;;;;2.75;2.55;;;;;;;;;;5072620;28;20028;-68
2022/11/18 04:58:10;;;;;;;3.58;3.25;;;;;;;;;;5072367;28;20017;-68
2022/11/18 05:00:36;;;;;;;3.42;3.00;;;;;;;;;;5054797;28;20502;-68
2022/11/18 05:03:01;;;;;;;3.63;3.05;;;;;;;;;;5072458;28;20020;-66
2022/11/18 05:05:27;;;;;;;3.55;2.90;;;;;;;;;;5072415;28;20046;-67
2022/11/18 05:07:52;;;;;;;3.30;2.90;;;;;;;;;;5072356;28;20422;-67
2022/11/18 05:10:18;;;;;;;3.40;3.10;;;;;;;;;;5072050;28;20098;-66
2022/11/18 05:12:49;;;;;;;3.70;3.15;;;;;;;;;;5072316;28;20157;-67
2022/11/18 05:15:20;;;;;;;3.13;2.83;;;;;;;;;;5072706;28;20101;-67
2022/11/18 05:17:46;;;;;;;3.08;2.88;;;;;;;;;;5072323;28;20422;-63
2022/11/18 05:20:13;;;;;;;2.88;2.55;;;;;;;;;;5072063;28;20021;-62
2022/11/18 05:22:39;;;;;;;3.03;2.80;;;;;;;;;;5072158;28;20033;-61
2022/11/18 05:25:05;;;;;;;3.20;2.90;;;;;;;;;;5072253;28;20117;-66
2022/11/18 05:27:31;;;;;;;3.30;3.00;;;;;;;;;;5072256;28;20031;-60
2022/11/18 05:29:56;;;;;;;3.85;2.97;;;;;;;;;;5072037;28;20107;-63
2022/11/18 05:32:22;;;;;;;3.20;2.90;;;;;;;;;;5071974;28;20060;-67
2022/11/18 05:34:47;;;;;;;3.25;2.92;;;;;;;;;;5072166;28;20086;-62
2022/11/18 05:37:13;;;;;;;3.28;2.97;;;;;;;;;;5072118;28;20044;-61
2022/11/18 05:39:39;;;;;;;3.22;2.92;;;;;;;;;;5072043;28;20048;-61
2022/11/18 05:44:50;;;;;;;2.90;2.60;;;;;;;;;;5075110;28;20058;-60
2022/11/18 05:47:16;;;;;;;3.03;2.70;;;;;;;;;;5076013;28;20094;-63
2022/11/18 05:49:42;;;;;;;3.20;2.90;;;;;;;;;;5076287;28;20024;-60
2022/11/18 05:52:08;;;;;;;3.00;2.70;;;;;;;;;;5075980;28;20020;-60
2022/11/18 05:54:33;;;;;;;2.88;2.67;;;;;;;;;;5057853;28;20029;-63
2022/11/18 05:56:59;;;;;;;5.20;2.92;;;;;;;;;;5075963;28;20031;-61
2022/11/18 05:59:24;;;;;;;3.42;2.90;;;;;;;;;;5075767;28;20052;-60
2022/11/18 06:01:56;;;;;;;3.08;2.63;;;;;;;;;;5075471;28;20028;-61
2022/11/18 06:04:27;;;;;;;3.08;2.78;;;;;;;;;;5075657;28;20043;-62
2022/11/18 06:06:59;;;;;;;3.08;2.78;;;;;;;;;;5075770;28;20021;-61
2022/11/18 06:09:29;;;;;;;3.28;2.97;;;;;;;;;;5074957;28;20059;-62
2022/11/18 06:11:57;;;;;;;2.90;2.60;;;;;;;;;;5075610;28;20025;-63
2022/11/18 06:14:38;;;;;;;3.22;2.92;;;;;;;;;;5075424;28;20791;-63
2022/11/18 06:17:08;;;;;;;2.85;2.63;;;;;;;;;;5075707;28;20052;-62
2022/11/18 06:19:34;;;;;;;3.03;2.65;;;;;;;;;;5057410;28;20150;-64
2022/11/18 06:22:00;;;;;;;2.78;2.58;;;;;;;;;;5075159;28;20503;-62
2022/11/18 06:24:25;;;;;;;3.55;2.97;;;;;;;;;;5075306;28;20056;-61
2022/11/18 06:26:51;;;;;;;3.20;2.90;;;;;;;;;;5075364;28;20024;-64
2022/11/18 06:29:19;;;;;;;3.42;2.80;;;;;;;;;;5075020;28;20605;-62
2022/11/18 06:31:44;;;;;;;3.30;3.00;;;;;;;;;;5075140;28;20033;-61
2022/11/18 06:34:10;;;;;;;3.10;2.80;;;;;;;;;;5074999;28;20028;-62
2022/11/18 06:36:35;;;;;;;2.80;2.60;;;;;;;;;;5075077;28;20090;-64
2022/11/18 06:39:03;;;;;;;3.22;2.85;;;;;;;;;;5075007;28;20028;-67
2022/11/18 06:41:28;;;;;;;3.28;2.85;;;;;;;;;;5074903;28;20328;-65
2022/11/18 06:43:54;;;;;;;3.10;2.80;;;;;;;;;;5075323;28;20043;-62
2022/11/18 06:49:04;;;;;;;3.75;2.70;;;;;;;;;;5074762;28;20055;-63
2022/11/18 06:51:30;;;;;;;3.55;2.88;;;;;;;;;;5073405;28;20028;-62
2022/11/18 06:53:55;;;;;;;3.20;2.80;;;;;;;;;;5073483;28;20024;-67
2022/11/18 06:56:22;;;;;;;2.90;2.70;;;;;;;;;;5072837;28;20012;-63
2022/11/18 06:58:56;;;;;;;3.10;2.80;;;;;;;;;;5056417;28;20419;-68
2022/11/18 07:01:24;;;;;;;2.88;2.65;;;;;;;;;;5056259;28;20029;-62
2022/11/18 07:03:51;;;;;;;2.80;2.60;;;;;;;;;;5074861;28;20119;-61
2022/11/18 07:06:20;;;;;;;3.28;2.97;;;;;;;;;;5074375;28;20027;-67
2022/11/18 07:08:46;;;;;;;3.58;2.80;;;;;;;;;;5069984;28;20020;-63
2022/11/18 07:11:16;;;;;;;3.28;2.75;;;;;;;;;;5069730;28;20024;-64
2022/11/18 07:13:42;;;;;;;3.72;3.40;;;;;;;;;;5068842;28;20108;-68
2022/11/18 07:16:11;;;;;;;2.80;2.60;;;;;;;;;;5068459;28;20016;-64
2022/11/18 07:18:40;;;;;;;2.72;2.53;;;;;;;;;;5069409;28;20091;-66
2022/11/18 07:21:11;;;;;;;3.05;2.78;;;;;;;;;;5068915;28;20036;-70
2022/11/18 07:23:37;;;;;;;3.05;2.75;;;;;;;;;;5051286;28;20028;-68
2022/11/18 07:26:03;;;;;;;2.85;2.60;;;;;;;;;;5068755;28;20424;-67
2022/11/18 07:28:29;;;;;;;3.03;2.67;;;;;;;;;;5051413;28;20020;-67
2022/11/18 07:31:08;;;;;;;2.80;2.60;;;;;;;;;;5069494;28;20460;-67
2022/11/18 07:33:35;;;;;;;3.22;2.55;;;;;;;;;;5068923;28;20032;-62
2022/11/18 07:36:09;;;;;;;3.00;2.72;;;;;;;;;;5069146;28;20040;-66
2022/11/18 07:38:35;;;;;;;3.33;2.72;;;;;;;;;;5034583;28;20426;-67
2022/11/18 07:41:11;;;;;;;2.95;2.72;;;;;;;;;;5068611;28;20020;-67
2022/11/18 07:43:37;;;;;;;3.72;2.92;;;;;;;;;;5069141;28;20198;-64
2022/11/18 07:46:36;;;;;;;3.30;3.00;;;;;;;;;;5072027;28;20017;-66
2022/11/18 07:49:04;;;;;;;2.88;2.58;;;;;;;;;;5056295;28;20127;-65
2022/11/18 07:51:33;;;;;;;3.17;2.88;;;;;;;;;;5055655;28;20066;-69
2022/11/18 07:53:59;;;;;;;3.20;2.75;;;;;;;;;;5073715;28;20131;-68
2022/11/18 07:56:25;;;;;;;3.28;2.97;;;;;;;;;;5073464;28;20021;-64
2022/11/18 07:58:53;;;;;;;3.10;2.67;;;;;;;;;;5073592;28;20107;-70
2022/11/18 08:01:22;;;;;;;3.25;3.00;;;;;;;;;;5055339;28;20032;-62
2022/11/18 08:03:48;;;;;;;3.28;2.70;;;;;;;;;;5073292;28;20032;-65
2022/11/18 08:06:16;;;;;;;2.90;2.67;;;;;;;;;;5073437;28;20024;-70
2022/11/18 08:08:43;;;;;;;3.00;2.70;;;;;;;;;;5073173;28;20027;-68
2022/11/18 08:11:11;;;;;;;3.58;3.00;;;;;;;;;;5073178;28;20060;-67
2022/11/18 08:13:37;;;;;;;3.17;2.88;;;;;;;;;;5071965;28;20055;-66
2022/11/18 08:16:04;;;;;;;2.90;2.60;;;;;;;;;;5073196;28;20129;-66
2022/11/18 08:18:31;;;;;;;2.88;2.67;;;;;;;;;;5071919;28;20025;-69
2022/11/18 08:21:04;;;;;;;3.35;3.05;;;;;;;;;;5073009;28;20020;-66
2022/11/18 08:23:30;;;;;;;3.10;2.80;;;;;;;;;;5073348;28;20033;-66
2022/11/18 08:26:04;;;;;;;3.53;3.20;;;;;;;;;;5073120;28;20495;-69
2022/11/18 08:28:30;;;;;;;5.82;2.65;;;;;;;;;;5073023;28;20025;-68
2022/11/18 08:30:56;;;;;;;3.00;2.72;;;;;;;;;;5072875;28;20028;-63
2022/11/18 08:33:21;;;;;;;3.42;3.00;;;;;;;;;;5072826;28;20062;-63
2022/11/18 08:35:47;;;;;;;3.38;3.08;;;;;;;;;;5072932;28;20029;-68
2022/11/18 08:38:12;;;;;;;2.97;2.70;;;;;;;;;;5072641;28;20029;-68
2022/11/18 08:40:45;;;;;;;3.65;2.72;;;;;;;;;;5072550;28;20533;-64
2022/11/18 08:43:11;;;;;;;3.00;2.70;;;;;;;;;;5072746;28;20031;-64
2022/11/18 08:45:38;;;;;;;3.50;2.97;;;;;;;;;;5072569;28;20028;-63
2022/11/18 08:48:04;;;;;;;3.33;3.03;;;;;;;;;;5070203;28;20025;-63
2022/11/18 08:50:29;;;;;;;2.85;2.60;;;;;;;;;;5072211;28;20028;-61
2022/11/18 08:52:55;;;;;;;3.28;2.83;;;;;;;;;;5072545;28;20017;-65
2022/11/18 08:55:20;;;;;;;3.10;2.80;;;;;;;;;;5072687;28;20025;-62
2022/11/18 08:57:46;;;;;;;3.80;2.90;;;;;;;;;;5053525;28;20060;-62
2022/11/18 09:00:13;;;;;;;3.05;2.75;;;;;;;;;;5072242;28;20529;-62
2022/11/18 09:02:38;;;;;;;3.00;2.80;;;;;;;;;;5054352;28;20032;-62
2022/11/18 09:05:04;;;;;;;3.30;3.00;;;;;;;;;;5072506;28;20069;-66
2022/11/18 09:07:30;;;;;;;2.90;2.70;;;;;;;;;;5072631;28;20082;-62
2022/11/18 09:09:56;;;;;;;3.75;3.05;;;;;;;;;;5072052;28;20438;-69
2022/11/18 09:12:21;;;;;;;3.00;2.70;;;;;;;;;;5054248;28;20045;-65
2022/11/18 09:14:47;;;;;;;3.03;2.72;;;;;;;;;;5072426;28;20024;-65
2022/11/18 09:17:15;;;;;;;3.05;2.70;;;;;;;;;;5072582;28;20494;-63
2022/11/18 09:19:42;;;;;;;3.40;3.10;;;;;;;;;;5071944;28;20031;-70
2022/11/18 09:22:08;;;;;;;3.47;2.83;;;;;;;;;;5069966;28;20036;-68
2022/11/18 09:24:34;;;;;;;3.03;2.72;;;;;;;;;;5072260;28;20529;-67
2022/11/18 09:27:04;;;;;;;3.10;2.80;;;;;;;;;;5072069;28;20037;-62
2022/11/18 09:29:31;;;;;;;3.92;2.85;;;;;;;;;;5072332;28;20104;-63
2022/11/18 09:32:00;;;;;;;3.38;3.08;;;;;;;;;;5053263;28;20419;-63
2022/11/18 09:34:27;;;;;;;2.70;2.50;;;;;;;;;;5071911;28;20055;-61
2022/11/18 09:36:54;;;;;;;3.00;2.70;;;;;;;;;;5070669;28;20042;-64
2022/11/18 09:39:23;;;;;;;3.28;2.90;;;;;;;;;;5071567;28;20104;-62
2022/11/18 09:42:41;;;;;;;3.83;2.83;;;;;;;;;;5071221;28;20115;-63
2022/11/18 09:45:24;;;;;;;3.50;2.92;;;;;;;;;;5052888;28;20040;-62
2022/11/18 09:47:50;;;;;;;3.00;2.70;;;;;;;;;;5072331;28;20024;-63
2022/11/18 09:50:21;;;;;;;3.63;2.90;;;;;;;;;;5071672;28;20047;-63
2022/11/18 09:52:49;;;;;;;4.60;2.92;;;;;;;;;;5071919;28;20494;-61
2022/11/18 09:55:17;;;;;;;2.95;2.58;;;;;;;;;;5071772;28;20039;-61
2022/11/18 09:57:46;;;;;;;3.42;3.13;;;;;;;;;;5070319;28;20136;-62
2022/11/18 10:00:19;;;;;;;4.60;3.10;;;;;;;;;;5070132;28;20033;-64
2022/11/18 10:03:05;;;;;;;3.00;2.70;;;;;;;;;;5051226;28;20035;-62
2022/11/18 10:05:45;;;;;;;4.18;3.15;;;;;;;;;;5051346;28;20051;-63
2022/11/18 10:08:24;;;;;;;2.85;2.65;;;;;;;;;;5050902;28;20104;-65
2022/11/18 10:11:23;;;;;;;4.75;2.90;;;;;;;;;;5049384;28;20091;-61
2022/11/18 10:13:55;;;;;;;3.25;2.95;;;;;;;;;;5051419;28;20155;-64
2022/11/18 10:16:21;;;;;;;3.10;2.80;;;;;;;;;;5051484;28;20021;-66
2022/11/18 10:18:56;;;;;;;3.20;2.90;;;;;;;;;;5051615;28;20027;-62
2022/11/18 10:21:44;;;;;;;3.08;2.75;;;;;;;;;;5051351;28;20496;-61
2022/11/18 10:24:17;;;;;;;2.95;2.65;;;;;;;;;;5037252;28;20381;-67
2022/11/18 10:26:43;;;;;;;3.55;3.10;;;;;;;;;;5050866;28;20025;-65
2022/11/18 10:29:09;;;;;;;3.08;2.78;;;;;;;;;;5051541;28;20031;-62
2022/11/18 10:31:40;;;;;;;3.47;2.85;;;;;;;;;;5053471;28;20381;-63
2022/11/18 10:34:09;;;;;;;;;;;;;;;;;;5037619;28;20025;-63
2022/11/18 10:36:36;;;;;;;2.92;2.70;;;;;;;;;;5055209;28;19917;-65
2022/11/18 10:39:15;;;;;;;3.42;2.95;;;;;;;;;;5055034;28;20025;-65
2022/11/18 10:42:02;;;;;;;3.08;2.63;;;;;;;;;;5054834;28;20080;-64
2022/11/18 10:44:38;;;;;;;2.90;2.70;;;;;;;;;;5054793;28;20028;-65
2022/11/18 10:47:26;;;;;;;3.20;2.90;;;;;;;;;;5054906;28;20029;-64
2022/11/18 10:50:00;;;;;;;2.90;2.70;;;;;;;;;;5054989;28;20425;-62
2022/11/18 10:52:27;;;;;;;3.28;2.97;;;;;;;;;;5054596;28;20024;-64
2022/11/18 10:55:25;;;;;;;4.45;3.20;;;;;;;;;;5036985;28;20048;-65
2022/11/18 10:58:15;;;;;;;3.38;2.88;;;;;;;;;;5054845;28;20412;-67
2022/11/18 11:00:48;;;;;;;3.70;3.20;;;;;;;;;;5054878;28;20108;-61
2022/11/18 11:03:21;;;;;;;3.60;2.75;;;;;;;;;;5054612;28;20029;-67
2022/11/18 11:05:46;;;;;;;3.10;2.80;;;;;;;;;;5054699;28;20070;-68
2022/11/18 11:08:22;;;;;;;3.95;3.10;;;;;;;;;;5054616;28;20107;-67
2022/11/18 11:10:56;;;;;;;3.10;2.80;;;;;;;;;;5054280;28;20191;-68
2022/11/18 11:13:25;;;;;;;4.03;3.00;;;;;;;;;;5036576;28;20025;-66
2022/11/18 11:15:53;;;;;;;3.13;2.85;;;;;;;;;;5036577;28;20025;-69
2022/11/18 11:18:42;;;;;;;3.28;2.97;;;;;;;;;;5054239;28;20540;-69
2022/11/18 11:21:11;;;;;;;4.57;3.08;;;;;;;;;;5054369;28;20037;-68
2022/11/18 11:23:37;;;;;;;3.40;3.10;;;;;;;;;;5054325;28;20036;-68
2022/11/18 11:26:21;;;;;;;3.20;2.90;;;;;;;;;;5054158;28;20024;-69
2022/11/18 11:28:56;;;;;;;3.30;2.92;;;;;;;;;;5054218;28;20473;-67
2022/11/18 11:31:38;;;;;;;3.00;2.70;;;;;;;;;;5054061;28;20056;-61
2022/11/18 11:34:46;;;;;;;3.33;2.67;;;;;;;;;;5037053;28;20416;-61
2022/11/18 11:37:40;;;;;;;4.88;2.80;;;;;;;;;;5053816;28;20380;-68
2022/11/18 11:40:40;;;;;;;3.20;2.90;;;;;;;;;;5031547;28;20389;-66
2022/11/18 11:43:14;;;;;;;;;;;;;;;;;;5053470;28;20049;-69
2022/11/18 11:45:45;;;;;;;3.40;2.80;;;;;;;;;;5053910;28;19942;-61
2022/11/18 11:48:36;;;;;;;3.40;3.10;;;;;;;;;;5053807;28;20025;-70
2022/11/18 11:51:23;;;;;;;2.78;2.58;;;;;;;;;;5053826;28;20116;-63
2022/11/18 11:54:25;;;;;;;4.45;3.10;;;;;;;;;;5053715;28;20024;-63
2022/11/18 11:57:09;;;;;;;3.78;3.00;;;;;;;;;;5053545;28;20092;-69
2022/11/18 12:00:10;;;;;;;3.85;3.08;;;;;;;;;;5053632;28;20032;-63
2022/11/18 12:03:13;;;;;;;2.88;2.67;;;;;;;;;;5034663;28;20037;-61
2022/11/18 12:05:41;;;;;;;3.63;2.92;;;;;;;;;;5053425;28;20028;-62
2022/11/18 12:08:19;;;;;;;3.40;3.10;;;;;;;;;;5053352;28;20017;-63
2022/11/18 12:10:57;;;;;;;3.08;2.80;;;;;;;;;;5053056;28;20056;-67
2022/11/18 12:13:26;;;;;;;3.95;3.35;;;;;;;;;;5053354;28;20032;-62
2022/11/18 12:15:59;;;;;;;3.42;2.85;;;;;;;;;;5053383;28;20025;-64
2022/11/18 12:18:43;;;;;;;3.20;2.90;;;;;;;;;;5035394;28;20025;-65
2022/11/18 12:21:44;;;;;;;3.38;2.90;;;;;;;;;;5053074;28;20100;-66
2022/11/18 12:24:29;;;;;;;3.97;3.10;;;;;;;;;;5034997;28;20020;-65
2022/11/18 12:26:59;;;;;;;2.75;2.55;;;;;;;;;;5052178;28;20522;-60
2022/11/18 12:29:32;;;;;;;2.78;2.58;;;;;;;;;;5052008;28;20032;-71
2022/11/18 12:32:00;;;;;;;4.47;2.70;;;;;;;;;;5035159;28;20439;-64
2022/11/18 12:34:43;;;;;;;3.42;2.88;;;;;;;;;;5034469;28;20472;-67
2022/11/18 12:37:24;;;;;;;3.42;3.13;;;;;;;;;;5052906;28;20484;-69
2022/11/18 12:39:57;;;;;;;3.35;3.05;;;;;;;;;;5052860;28;20029;-61
2022/11/18 12:45:41;;;;;;;3.50;3.20;;;;;;;;;;5051465;28;20048;-68
2022/11/18 12:48:29;;;;;;;3.75;2.95;;;;;;;;;;5050922;28;20471;-68
2022/11/18 12:51:23;;;;;;;3.65;2.90;;;;;;;;;;5050803;28;20044;-65
2022/11/18 12:53:51;;;;;;;4.18;3.15;;;;;;;;;;5050265;28;20029;-61
2022/11/18 12:56:16;;;;;;;3.33;3.03;;;;;;;;;;5050812;28;20021;-61
2022/11/18 12:59:01;;;;;;;3.30;2.78;;;;;;;;;;5051206;28;20108;-62
2022/11/18 13:01:29;;;;;;;3.45;3.03;;;;;;;;;;5050707;28;20024;-65
2022/11/18 13:04:07;;;;;;;3.17;2.92;;;;;;;;;;5051101;28;20025;-67
2022/11/18 13:06:36;;;;;;;3.22;2.85;;;;;;;;;;5050847;28;20587;-62
2022/11/18 13:09:06;;;;;;;3.22;2.92;;;;;;;;;;5032369;28;20049;-62
2022/11/18 13:11:44;;;;;;;3.95;3.13;;;;;;;;;;5050785;28;20033;-67
2022/11/18 13:17:51;;;;;;;4.60;3.42;;;;;;;;;;5051122;28;20495;-61
2022/11/18 13:20:38;;;;;;;3.30;2.80;;;;;;;;;;5050771;28;20037;-68
2022/11/18 13:26:27;;;;;;;3.20;2.90;;;;;;;;;;5050816;28;20040;-67
2022/11/18 13:29:02;;;;;;;3.40;3.10;;;;;;;;;;5050779;28;20056;-68
2022/11/18 13:31:44;;;;;;;4.25;3.45;;;;;;;;;;5050455;28;20484;-67
2022/11/18 13:34:19;;;;;;;3.28;2.97;;;;;;;;;;5050459;28;20484;-61
2022/11/18 13:36:47;;;;;;;3.45;3.15;;;;;;;;;;5050460;28;20025;-62
2022/11/18 13:39:31;;;;;;;3.28;2.97;;;;;;;;;;5050519;28;20025;-64
2022/11/18 13:42:06;;;;;;;3.45;3.15;;;;;;;;;;5050564;28;20025;-62
2022/11/18 13:44:37;;;;;;;3.20;2.90;;;;;;;;;;5050381;28;20083;-67
2022/11/18 13:47:11;;;;;;;3.80;3.08;;;;;;;;;;5050449;28;20059;-66
2022/11/18 13:49:54;;;;;;;3.40;3.10;;;;;;;;;;5033651;28;20110;-69
2022/11/18 13:52:26;;;;;;;3.22;2.92;;;;;;;;;;5032243;28;20029;-68
2022/11/18 13:54:54;;;;;;;3.30;3.00;;;;;;;;;;5050664;28;20024;-69
2022/11/18 13:57:22;;;;;;;3.38;3.08;;;;;;;;;;5050102;28;20026;-68
2022/11/18 13:59:49;;;;;;;3.25;2.97;;;;;;;;;;5050301;28;20048;-68
2022/11/18 14:02:15;;;;;;;3.17;2.88;;;;;;;;;;5050196;28;20071;-69
2022/11/18 14:04:56;;;;;;;3.45;3.15;;;;;;;;;;5050966;28;20032;-68
2022/11/18 14:07:26;;;;;;;3.53;3.22;;;;;;;;;;5054140;28;20017;-63
2022/11/18 14:09:54;;;;;;;3.40;3.10;;;;;;;;;;5054114;28;20402;-61
2022/11/18 14:12:27;;;;;;;3.28;2.97;;;;;;;;;;5053693;28;20037;-61
2022/11/18 14:15:21;;;;;;;3.20;2.90;;;;;;;;;;5053918;28;20033;-61
2022/11/18 14:18:18;;;;;;;3.45;3.15;;;;;;;;;;5036004;28;20484;-64
2022/11/18 14:20:50;;;;;;;3.22;2.95;;;;;;;;;;5054137;28;20087;-66
2022/11/18 14:23:18;;;;;;;3.42;3.00;;;;;;;;;;5053743;28;20484;-63
2022/11/18 14:25:44;;;;;;;3.38;2.92;;;;;;;;;;5035693;28;20029;-69
2022/11/18 14:28:19;;;;;;;3.45;3.00;;;;;;;;;;5053740;28;20395;-63
2022/11/18 14:30:56;;;;;;;3.60;3.30;;;;;;;;;;5053925;28;20032;-68
2022/11/18 14:33:27;;;;;;;3.33;3.03;;;;;;;;;;5053787;28;20029;-67
2022/11/18 14:36:10;;;;;;;4.25;2.95;;;;;;;;;;5053559;28;20017;-68
2022/11/18 14:38:47;;;;;;;3.70;3.10;;;;;;;;;;5053676;28;20124;-63
2022/11/18 14:41:45;;;;;;;3.00;2.70;;;;;;;;;;5053303;28;20027;-68
2022/11/18 14:44:02;;;;;;;3.17;2.88;;;;;;;;;;5053292;28;20037;-62
2022/11/18 14:46:28;;;;;;;3.35;3.05;;;;;;;;;;5053376;28;20108;-61
2022/11/18 14:48:54;;;;;;;3.38;3.08;;;;;;;;;;5053305;28;20111;-62
2022/11/18 14:51:20;;;;;;;3.30;3.00;;;;;;;;;;5053164;28;20060;-63
2022/11/18 14:53:45;;;;;;;5.15;3.55;;;;;;;;;;5053470;28;20025;-60
2022/11/18 14:56:21;;;;;;;3.70;3.30;;;;;;;;;;5035192;28;20551;-63
2022/11/18 14:58:47;;;;;;;3.63;3.33;;;;;;;;;;5053259;28;20098;-61
2022/11/18 15:01:15;;;;;;;3.28;3.00;;;;;;;;;;5053000;28;20602;-62
2022/11/18 15:03:41;;;;;;;3.10;2.80;;;;;;;;;;5053313;28;20053;-61
2022/11/18 15:06:17;;;;;;;4.85;3.20;;;;;;;;;;5064125;28;20383;-61
2022/11/18 15:08:44;;;;;;;3.13;2.83;;;;;;;;;;5069593;28;20514;-63
2022/11/18 15:11:10;;;;;;;3.22;2.92;;;;;;;;;;5072970;28;20036;-62
2022/11/18 15:13:37;;;;;;;3.17;2.80;;;;;;;;;;5073087;28;20093;-61
2022/11/18 15:16:23;;;;;;;4.43;3.45;;;;;;;;;;5070696;28;20024;-61
2022/11/18 15:18:52;;;;;;;3.85;3.45;;;;;;;;;;5072694;28;20024;-61
2022/11/18 15:21:18;;;;;;;3.67;3.00;;;;;;;;;;5071550;28;20024;-66
2022/11/18 15:23:45;;;;;;;3.28;3.00;;;;;;;;;;5053604;28;20434;-67
2022/11/18 15:26:28;;;;;;;3.42;2.97;;;;;;;;;;5071905;28;20076;-68
2022/11/18 15:28:55;;;;;;;3.85;3.20;;;;;;;;;;5072195;28;20028;-66
2022/11/18 15:31:22;;;;;;;3.40;3.05;;;;;;;;;;5072363;28;20031;-67
2022/11/18 15:33:49;;;;;;;3.33;3.03;;;;;;;;;;5072219;28;20441;-68